sensor_id;sensor_type;location;lat;lon;timestamp;temperature;humidity
16871;DHT22;8552;48.120;-1.456;2022-09-21T00:00:39;10.10;99.90
16871;DHT22;8552;48.120;-1.456;2022-09-21T00:03:05;10.00;99.90
16871;DHT22;8552;48.120;-1.456;2022-09-21T00:05:32;10.00;99.90
16871;DHT22;8552;48.120;-1.456;2022-09-21T00:08:03;9.90;99.90
16871;DHT22;8552;48.120;-1.456;2022-09-21T00:10:29;9.90;99.90
16871;DHT22;8552;48.120;-1.456;2022-09-21T00:12:56;9.90;99.90
16871;DHT22;8552;48.120;-1.456;2022-09-21T00:15:23;9.90;99.90
16871;DHT22;8552;48.120;-1.456;2022-09-21T00:17:52;9.80;99.90
16871;DHT22;8552;48.120;-1.456;2022-09-21T00:20:18;9.80;99.90
16871;DHT22;8552;48.120;-1.456;2022-09-21T00:22:45;9.80;99.90
16871;DHT22;8552;48.120;-1.456;2022-09-21T00:25:11;9.80;99.90
16871;DHT22;8552;48.120;-1.456;2022-09-21T00:27:36;9.70;99.90
16871;DHT22;8552;48.120;-1.456;2022-09-21T00:30:03;9.70;99.90
16871;DHT22;8552;48.120;-1.456;2022-09-21T00:32:30;9.70;99.90
16871;DHT22;8552;48.120;-1.456;2022-09-21T00:34:57;9.60;99.90
16871;DHT22;8552;48.120;-1.456;2022-09-21T00:37:25;9.60;99.90
16871;DHT22;8552;48.120;-1.456;2022-09-21T00:39:51;9.70;99.90
16871;DHT22;8552;48.120;-1.456;2022-09-21T00:44:43;9.50;99.90
16871;DHT22;8552;48.120;-1.456;2022-09-21T00:47:15;9.50;99.90
16871;DHT22;8552;48.120;-1.456;2022-09-21T00:49:46;9.50;99.90
16871;DHT22;8552;48.120;-1.456;2022-09-21T00:52:14;9.50;99.90
16871;DHT22;8552;48.120;-1.456;2022-09-21T00:54:48;9.40;99.90
16871;DHT22;8552;48.120;-1.456;2022-09-21T00:57:16;9.40;99.90
16871;DHT22;8552;48.120;-1.456;2022-09-21T00:59:44;9.40;99.90
16871;DHT22;8552;48.120;-1.456;2022-09-21T01:02:10;9.40;99.90
16871;DHT22;8552;48.120;-1.456;2022-09-21T01:04:36;9.30;99.90
16871;DHT22;8552;48.120;-1.456;2022-09-21T01:07:06;9.30;99.90
16871;DHT22;8552;48.120;-1.456;2022-09-21T01:09:32;9.30;99.90
16871;DHT22;8552;48.120;-1.456;2022-09-21T01:31:26;9.20;99.90
16871;DHT22;8552;48.120;-1.456;2022-09-21T01:33:56;9.20;99.90
16871;DHT22;8552;48.120;-1.456;2022-09-21T01:36:27;9.20;99.90
16871;DHT22;8552;48.120;-1.456;2022-09-21T01:39:02;9.20;99.90
16871;DHT22;8552;48.120;-1.456;2022-09-21T01:41:31;9.10;99.90
16871;DHT22;8552;48.120;-1.456;2022-09-21T01:44:03;9.10;99.90
16871;DHT22;8552;48.120;-1.456;2022-09-21T01:46:33;9.20;99.90
16871;DHT22;8552;48.120;-1.456;2022-09-21T01:49:05;9.10;99.90
16871;DHT22;8552;48.120;-1.456;2022-09-21T01:51:34;9.20;99.90
16871;DHT22;8552;48.120;-1.456;2022-09-21T01:54:07;9.20;99.90
16871;DHT22;8552;48.120;-1.456;2022-09-21T01:56:47;9.30;99.90
16871;DHT22;8552;48.120;-1.456;2022-09-21T01:59:21;9.30;99.90
16871;DHT22;8552;48.120;-1.456;2022-09-21T02:01:55;9.30;99.90
16871;DHT22;8552;48.120;-1.456;2022-09-21T02:04:22;9.30;99.90
16871;DHT22;8552;48.120;-1.456;2022-09-21T02:06:49;9.30;99.90
16871;DHT22;8552;48.120;-1.456;2022-09-21T02:09:16;9.30;99.90
16871;DHT22;8552;48.120;-1.456;2022-09-21T02:11:42;9.40;99.90
16871;DHT22;8552;48.120;-1.456;2022-09-21T02:14:29;9.30;99.90
16871;DHT22;8552;48.120;-1.456;2022-09-21T02:20:06;9.40;99.90
16871;DHT22;8552;48.120;-1.456;2022-09-21T02:23:01;9.30;99.90
16871;DHT22;8552;48.120;-1.456;2022-09-21T02:28:34;9.30;99.90
16871;DHT22;8552;48.120;-1.456;2022-09-21T02:33:47;9.20;99.90
16871;DHT22;8552;48.120;-1.456;2022-09-21T02:36:30;9.30;99.90
16871;DHT22;8552;48.120;-1.456;2022-09-21T02:39:17;9.30;99.90
16871;DHT22;8552;48.120;-1.456;2022-09-21T02:42:07;9.30;99.90
16871;DHT22;8552;48.120;-1.456;2022-09-21T02:44:45;9.20;99.90
16871;DHT22;8552;48.120;-1.456;2022-09-21T02:47:17;9.30;99.90
16871;DHT22;8552;48.120;-1.456;2022-09-21T02:49:48;9.20;99.90
16871;DHT22;8552;48.120;-1.456;2022-09-21T02:52:16;9.30;99.90
16871;DHT22;8552;48.120;-1.456;2022-09-21T02:54:45;9.20;99.90
16871;DHT22;8552;48.120;-1.456;2022-09-21T02:57:14;9.20;99.90
16871;DHT22;8552;48.120;-1.456;2022-09-21T02:59:41;9.20;99.90
16871;DHT22;8552;48.120;-1.456;2022-09-21T03:02:09;9.20;99.90
16871;DHT22;8552;48.120;-1.456;2022-09-21T03:04:37;9.30;99.90
16871;DHT22;8552;48.120;-1.456;2022-09-21T03:07:06;9.30;99.90
16871;DHT22;8552;48.120;-1.456;2022-09-21T03:09:31;9.30;99.90
16871;DHT22;8552;48.120;-1.456;2022-09-21T03:11:57;9.20;99.90
16871;DHT22;8552;48.120;-1.456;2022-09-21T03:14:23;9.20;99.90
16871;DHT22;8552;48.120;-1.456;2022-09-21T03:16:49;9.20;99.90
16871;DHT22;8552;48.120;-1.456;2022-09-21T03:19:14;9.20;99.90
16871;DHT22;8552;48.120;-1.456;2022-09-21T03:21:40;9.30;99.90
16871;DHT22;8552;48.120;-1.456;2022-09-21T03:24:06;9.30;99.90
16871;DHT22;8552;48.120;-1.456;2022-09-21T03:26:32;9.30;99.90
16871;DHT22;8552;48.120;-1.456;2022-09-21T03:28:58;9.30;99.90
16871;DHT22;8552;48.120;-1.456;2022-09-21T03:31:23;9.30;99.90
16871;DHT22;8552;48.120;-1.456;2022-09-21T03:33:49;9.40;99.90
16871;DHT22;8552;48.120;-1.456;2022-09-21T03:36:15;9.40;99.90
16871;DHT22;8552;48.120;-1.456;2022-09-21T03:38:41;9.50;99.90
16871;DHT22;8552;48.120;-1.456;2022-09-21T03:41:07;9.50;99.90
16871;DHT22;8552;48.120;-1.456;2022-09-21T03:43:32;9.60;99.90
16871;DHT22;8552;48.120;-1.456;2022-09-21T03:45:58;9.60;99.90
16871;DHT22;8552;48.120;-1.456;2022-09-21T03:48:24;9.60;99.90
16871;DHT22;8552;48.120;-1.456;2022-09-21T03:50:50;9.60;99.90
16871;DHT22;8552;48.120;-1.456;2022-09-21T03:53:16;9.60;99.90
16871;DHT22;8552;48.120;-1.456;2022-09-21T03:55:42;9.70;99.90
16871;DHT22;8552;48.120;-1.456;2022-09-21T03:58:08;9.70;99.90
16871;DHT22;8552;48.120;-1.456;2022-09-21T04:00:34;9.70;99.90
16871;DHT22;8552;48.120;-1.456;2022-09-21T04:03:00;9.70;99.90
16871;DHT22;8552;48.120;-1.456;2022-09-21T04:05:26;9.70;99.90
16871;DHT22;8552;48.120;-1.456;2022-09-21T04:07:53;9.70;99.90
16871;DHT22;8552;48.120;-1.456;2022-09-21T04:10:21;9.80;99.90
16871;DHT22;8552;48.120;-1.456;2022-09-21T04:13:00;9.80;99.90
16871;DHT22;8552;48.120;-1.456;2022-09-21T04:15:26;9.80;99.90
16871;DHT22;8552;48.120;-1.456;2022-09-21T04:17:53;9.80;99.90
16871;DHT22;8552;48.120;-1.456;2022-09-21T04:20:20;9.80;99.90
16871;DHT22;8552;48.120;-1.456;2022-09-21T04:22:46;9.80;99.90
16871;DHT22;8552;48.120;-1.456;2022-09-21T04:25:12;9.80;99.90
16871;DHT22;8552;48.120;-1.456;2022-09-21T04:27:38;9.90;99.90
16871;DHT22;8552;48.120;-1.456;2022-09-21T04:30:05;9.80;99.90
16871;DHT22;8552;48.120;-1.456;2022-09-21T04:32:31;9.80;99.90
16871;DHT22;8552;48.120;-1.456;2022-09-21T04:34:56;9.80;99.90
16871;DHT22;8552;48.120;-1.456;2022-09-21T04:37:22;9.80;99.90
16871;DHT22;8552;48.120;-1.456;2022-09-21T04:39:48;9.80;99.90
16871;DHT22;8552;48.120;-1.456;2022-09-21T04:42:14;9.90;99.90
16871;DHT22;8552;48.120;-1.456;2022-09-21T04:44:40;9.80;99.90
16871;DHT22;8552;48.120;-1.456;2022-09-21T04:47:05;9.80;99.90
16871;DHT22;8552;48.120;-1.456;2022-09-21T04:49:31;9.80;99.90
16871;DHT22;8552;48.120;-1.456;2022-09-21T04:51:57;9.80;99.90
16871;DHT22;8552;48.120;-1.456;2022-09-21T04:54:22;9.90;99.90
16871;DHT22;8552;48.120;-1.456;2022-09-21T04:56:48;9.90;99.90
16871;DHT22;8552;48.120;-1.456;2022-09-21T04:59:14;9.90;99.90
16871;DHT22;8552;48.120;-1.456;2022-09-21T05:01:39;9.90;99.90
16871;DHT22;8552;48.120;-1.456;2022-09-21T05:04:05;9.90;99.90
16871;DHT22;8552;48.120;-1.456;2022-09-21T05:06:32;9.90;99.90
16871;DHT22;8552;48.120;-1.456;2022-09-21T05:08:58;9.90;99.90
16871;DHT22;8552;48.120;-1.456;2022-09-21T05:11:43;10.00;99.90
16871;DHT22;8552;48.120;-1.456;2022-09-21T05:14:09;10.10;99.90
16871;DHT22;8552;48.120;-1.456;2022-09-21T05:16:35;10.00;99.90
16871;DHT22;8552;48.120;-1.456;2022-09-21T05:19:01;10.00;99.90
16871;DHT22;8552;48.120;-1.456;2022-09-21T05:21:27;10.00;99.90
16871;DHT22;8552;48.120;-1.456;2022-09-21T05:23:54;10.00;99.90
16871;DHT22;8552;48.120;-1.456;2022-09-21T05:26:21;9.90;99.90
16871;DHT22;8552;48.120;-1.456;2022-09-21T05:28:47;9.90;99.90
16871;DHT22;8552;48.120;-1.456;2022-09-21T05:33:49;9.80;99.90
16871;DHT22;8552;48.120;-1.456;2022-09-21T05:36:59;9.80;99.90
16871;DHT22;8552;48.120;-1.456;2022-09-21T05:39:27;9.70;99.90
16871;DHT22;8552;48.120;-1.456;2022-09-21T05:41:53;9.60;99.90
16871;DHT22;8552;48.120;-1.456;2022-09-21T05:44:19;9.60;99.90
16871;DHT22;8552;48.120;-1.456;2022-09-21T06:03:30;9.10;99.90
16871;DHT22;8552;48.120;-1.456;2022-09-21T06:05:57;9.10;99.90
16871;DHT22;8552;48.120;-1.456;2022-09-21T06:08:24;9.10;99.90
16871;DHT22;8552;48.120;-1.456;2022-09-21T06:10:51;9.10;99.90
16871;DHT22;8552;48.120;-1.456;2022-09-21T06:13:17;9.10;99.90
16871;DHT22;8552;48.120;-1.456;2022-09-21T06:15:42;9.10;99.90
16871;DHT22;8552;48.120;-1.456;2022-09-21T06:18:08;9.10;99.90
16871;DHT22;8552;48.120;-1.456;2022-09-21T06:20:35;9.10;99.90
16871;DHT22;8552;48.120;-1.456;2022-09-21T06:23:04;9.10;99.90
16871;DHT22;8552;48.120;-1.456;2022-09-21T06:25:30;9.20;99.90
16871;DHT22;8552;48.120;-1.456;2022-09-21T06:28:04;9.20;99.90
16871;DHT22;8552;48.120;-1.456;2022-09-21T06:30:32;9.10;99.90
16871;DHT22;8552;48.120;-1.456;2022-09-21T06:33:00;9.20;99.90
16871;DHT22;8552;48.120;-1.456;2022-09-21T06:35:27;9.20;99.90
16871;DHT22;8552;48.120;-1.456;2022-09-21T06:37:57;9.20;99.90
16871;DHT22;8552;48.120;-1.456;2022-09-21T06:40:23;9.20;99.90
16871;DHT22;8552;48.120;-1.456;2022-09-21T06:42:49;9.30;99.90
16871;DHT22;8552;48.120;-1.456;2022-09-21T06:45:14;9.30;99.90
16871;DHT22;8552;48.120;-1.456;2022-09-21T06:47:45;9.30;99.90
16871;DHT22;8552;48.120;-1.456;2022-09-21T06:50:12;9.30;99.90
16871;DHT22;8552;48.120;-1.456;2022-09-21T06:52:38;9.40;99.90
16871;DHT22;8552;48.120;-1.456;2022-09-21T06:55:05;9.40;99.90
16871;DHT22;8552;48.120;-1.456;2022-09-21T06:57:31;9.50;99.90
16871;DHT22;8552;48.120;-1.456;2022-09-21T06:59:56;9.50;99.90
16871;DHT22;8552;48.120;-1.456;2022-09-21T07:02:22;9.70;99.90
16871;DHT22;8552;48.120;-1.456;2022-09-21T07:04:48;9.80;99.90
16871;DHT22;8552;48.120;-1.456;2022-09-21T07:07:13;9.90;99.90
16871;DHT22;8552;48.120;-1.456;2022-09-21T07:09:40;10.10;99.90
16871;DHT22;8552;48.120;-1.456;2022-09-21T07:12:05;10.10;99.90
16871;DHT22;8552;48.120;-1.456;2022-09-21T07:14:32;10.30;99.90
16871;DHT22;8552;48.120;-1.456;2022-09-21T07:16:58;10.40;99.90
16871;DHT22;8552;48.120;-1.456;2022-09-21T07:19:24;10.40;99.90
16871;DHT22;8552;48.120;-1.456;2022-09-21T07:21:53;10.60;99.90
16871;DHT22;8552;48.120;-1.456;2022-09-21T07:24:18;10.70;99.90
16871;DHT22;8552;48.120;-1.456;2022-09-21T07:26:44;10.80;99.90
16871;DHT22;8552;48.120;-1.456;2022-09-21T07:29:10;10.80;99.90
16871;DHT22;8552;48.120;-1.456;2022-09-21T07:31:35;11.00;99.90
16871;DHT22;8552;48.120;-1.456;2022-09-21T07:34:01;11.00;99.90
16871;DHT22;8552;48.120;-1.456;2022-09-21T07:36:27;11.10;99.90
16871;DHT22;8552;48.120;-1.456;2022-09-21T07:38:53;11.30;99.90
16871;DHT22;8552;48.120;-1.456;2022-09-21T07:41:19;11.30;99.90
16871;DHT22;8552;48.120;-1.456;2022-09-21T07:43:45;11.40;99.90
16871;DHT22;8552;48.120;-1.456;2022-09-21T07:46:13;11.50;99.90
16871;DHT22;8552;48.120;-1.456;2022-09-21T07:48:39;11.70;99.90
16871;DHT22;8552;48.120;-1.456;2022-09-21T07:51:08;11.80;99.90
16871;DHT22;8552;48.120;-1.456;2022-09-21T07:53:35;11.90;99.90
16871;DHT22;8552;48.120;-1.456;2022-09-21T07:56:06;12.10;99.90
16871;DHT22;8552;48.120;-1.456;2022-09-21T07:58:33;12.20;99.90
16871;DHT22;8552;48.120;-1.456;2022-09-21T08:01:18;12.30;99.90
16871;DHT22;8552;48.120;-1.456;2022-09-21T08:03:44;12.40;99.90
16871;DHT22;8552;48.120;-1.456;2022-09-21T08:06:12;12.60;99.90
16871;DHT22;8552;48.120;-1.456;2022-09-21T08:08:38;12.80;99.90
16871;DHT22;8552;48.120;-1.456;2022-09-21T08:11:06;12.90;99.90
16871;DHT22;8552;48.120;-1.456;2022-09-21T08:13:33;13.00;99.90
16871;DHT22;8552;48.120;-1.456;2022-09-21T08:16:00;13.10;99.90
16871;DHT22;8552;48.120;-1.456;2022-09-21T08:18:26;13.20;99.90
16871;DHT22;8552;48.120;-1.456;2022-09-21T08:20:59;13.30;99.90
16871;DHT22;8552;48.120;-1.456;2022-09-21T08:23:29;13.50;99.90
16871;DHT22;8552;48.120;-1.456;2022-09-21T08:26:03;13.60;99.90
16871;DHT22;8552;48.120;-1.456;2022-09-21T08:28:33;13.70;99.90
16871;DHT22;8552;48.120;-1.456;2022-09-21T08:31:04;13.80;99.90
16871;DHT22;8552;48.120;-1.456;2022-09-21T08:33:30;14.00;99.90
16871;DHT22;8552;48.120;-1.456;2022-09-21T08:35:58;14.10;99.90
16871;DHT22;8552;48.120;-1.456;2022-09-21T08:38:25;14.20;99.90
16871;DHT22;8552;48.120;-1.456;2022-09-21T08:40:52;14.30;99.90
16871;DHT22;8552;48.120;-1.456;2022-09-21T08:45:58;14.50;99.90
16871;DHT22;8552;48.120;-1.456;2022-09-21T08:48:34;14.70;99.90
16871;DHT22;8552;48.120;-1.456;2022-09-21T08:51:06;14.90;99.90
16871;DHT22;8552;48.120;-1.456;2022-09-21T08:53:37;15.00;99.90
16871;DHT22;8552;48.120;-1.456;2022-09-21T08:56:03;15.10;99.90
16871;DHT22;8552;48.120;-1.456;2022-09-21T08:58:31;15.10;99.90
16871;DHT22;8552;48.120;-1.456;2022-09-21T09:07:25;15.60;99.90
16871;DHT22;8552;48.120;-1.456;2022-09-21T09:15:52;16.00;99.90
16871;DHT22;8552;48.120;-1.456;2022-09-21T09:20:56;16.20;99.90
16871;DHT22;8552;48.120;-1.456;2022-09-21T09:23:25;16.20;99.90
16871;DHT22;8552;48.120;-1.456;2022-09-21T09:26:02;16.30;99.90
16871;DHT22;8552;48.120;-1.456;2022-09-21T09:28:41;16.40;99.90
16871;DHT22;8552;48.120;-1.456;2022-09-21T09:31:29;16.60;99.90
16871;DHT22;8552;48.120;-1.456;2022-09-21T09:36:27;16.80;99.90
16871;DHT22;8552;48.120;-1.456;2022-09-21T09:39:01;16.70;99.90
16871;DHT22;8552;48.120;-1.456;2022-09-21T09:51:52;17.10;99.90
16871;DHT22;8552;48.120;-1.456;2022-09-21T09:54:20;17.10;99.90
16871;DHT22;8552;48.120;-1.456;2022-09-21T09:56:48;17.20;99.90
16871;DHT22;8552;48.120;-1.456;2022-09-21T09:59:40;17.30;99.90
16871;DHT22;8552;48.120;-1.456;2022-09-21T10:04:54;17.60;99.90
16871;DHT22;8552;48.120;-1.456;2022-09-21T10:07:54;17.70;99.90
16871;DHT22;8552;48.120;-1.456;2022-09-21T10:10:39;18.10;99.90
16871;DHT22;8552;48.120;-1.456;2022-09-21T10:16:05;18.40;99.90
16871;DHT22;8552;48.120;-1.456;2022-09-21T10:18:53;18.70;99.90
16871;DHT22;8552;48.120;-1.456;2022-09-21T10:21:36;18.80;99.90
16871;DHT22;8552;48.120;-1.456;2022-09-21T10:24:05;18.80;99.90
16871;DHT22;8552;48.120;-1.456;2022-09-21T10:29:27;18.80;99.90
16871;DHT22;8552;48.120;-1.456;2022-09-21T10:32:02;18.90;99.90
16871;DHT22;8552;48.120;-1.456;2022-09-21T10:34:30;18.80;99.30
16871;DHT22;8552;48.120;-1.456;2022-09-21T10:36:58;18.50;98.00
16871;DHT22;8552;48.120;-1.456;2022-09-21T10:39:33;18.50;98.10
16871;DHT22;8552;48.120;-1.456;2022-09-21T10:42:14;18.70;99.20
16871;DHT22;8552;48.120;-1.456;2022-09-21T10:44:43;18.60;96.90
16871;DHT22;8552;48.120;-1.456;2022-09-21T10:47:24;18.90;98.90
16871;DHT22;8552;48.120;-1.456;2022-09-21T10:49:57;18.80;96.40
16871;DHT22;8552;48.120;-1.456;2022-09-21T10:52:33;19.20;99.20
16871;DHT22;8552;48.120;-1.456;2022-09-21T10:54:59;19.50;97.00
16871;DHT22;8552;48.120;-1.456;2022-09-21T10:57:27;19.80;97.00
16871;DHT22;8552;48.120;-1.456;2022-09-21T10:59:53;20.00;96.30
16871;DHT22;8552;48.120;-1.456;2022-09-21T11:02:34;20.00;95.90
16871;DHT22;8552;48.120;-1.456;2022-09-21T11:05:06;19.80;94.40
16871;DHT22;8552;48.120;-1.456;2022-09-21T11:07:53;19.60;93.10
16871;DHT22;8552;48.120;-1.456;2022-09-21T11:10:45;19.60;93.80
16871;DHT22;8552;48.120;-1.456;2022-09-21T11:13:24;19.60;93.70
16871;DHT22;8552;48.120;-1.456;2022-09-21T11:21:43;19.90;94.00
16871;DHT22;8552;48.120;-1.456;2022-09-21T11:27:14;20.20;92.20
16871;DHT22;8552;48.120;-1.456;2022-09-21T11:30:10;20.70;94.40
16871;DHT22;8552;48.120;-1.456;2022-09-21T11:41:04;20.70;90.00
16871;DHT22;8552;48.120;-1.456;2022-09-21T11:44:00;21.00;93.20
16871;DHT22;8552;48.120;-1.456;2022-09-21T11:57:57;21.40;91.30
16871;DHT22;8552;48.120;-1.456;2022-09-21T12:00:18;21.10;87.00
16871;DHT22;8552;48.120;-1.456;2022-09-21T12:03:15;21.30;90.90
16871;DHT22;8552;48.120;-1.456;2022-09-21T12:20:03;21.30;89.20
16871;DHT22;8552;48.120;-1.456;2022-09-21T12:22:24;21.00;85.90
16871;DHT22;8552;48.120;-1.456;2022-09-21T12:27:41;21.50;83.90
16871;DHT22;8552;48.120;-1.456;2022-09-21T12:30:16;21.70;79.50
16871;DHT22;8552;48.120;-1.456;2022-09-21T12:32:55;21.90;84.90
16871;DHT22;8552;48.120;-1.456;2022-09-21T12:35:39;22.00;84.30
16871;DHT22;8552;48.120;-1.456;2022-09-21T12:38:26;22.40;80.90
16871;DHT22;8552;48.120;-1.456;2022-09-21T12:41:17;22.30;80.10
16871;DHT22;8552;48.120;-1.456;2022-09-21T12:43:55;21.90;81.10
16871;DHT22;8552;48.120;-1.456;2022-09-21T12:46:42;22.20;83.00
16871;DHT22;8552;48.120;-1.456;2022-09-21T12:49:16;22.40;77.60
16871;DHT22;8552;48.120;-1.456;2022-09-21T12:51:49;22.40;81.20
16871;DHT22;8552;48.120;-1.456;2022-09-21T12:54:30;22.50;77.70
16871;DHT22;8552;48.120;-1.456;2022-09-21T13:00:02;22.60;77.10
16871;DHT22;8552;48.120;-1.456;2022-09-21T13:12:59;22.50;76.60
16871;DHT22;8552;48.120;-1.456;2022-09-21T13:15:29;22.90;75.20
16871;DHT22;8552;48.120;-1.456;2022-09-21T13:17:58;22.80;73.00
16871;DHT22;8552;48.120;-1.456;2022-09-21T13:20:24;22.50;74.50
16871;DHT22;8552;48.120;-1.456;2022-09-21T13:22:57;22.80;74.00
16871;DHT22;8552;48.120;-1.456;2022-09-21T13:25:26;23.00;73.90
16871;DHT22;8552;48.120;-1.456;2022-09-21T13:30:39;23.10;80.10
16871;DHT22;8552;48.120;-1.456;2022-09-21T13:54:15;22.70;73.70
16871;DHT22;8552;48.120;-1.456;2022-09-21T13:56:42;22.90;74.80
16871;DHT22;8552;48.120;-1.456;2022-09-21T13:59:20;22.60;71.70
16871;DHT22;8552;48.120;-1.456;2022-09-21T14:01:48;23.20;76.90
16871;DHT22;8552;48.120;-1.456;2022-09-21T14:04:22;22.50;72.90
16871;DHT22;8552;48.120;-1.456;2022-09-21T14:06:50;22.70;75.10
16871;DHT22;8552;48.120;-1.456;2022-09-21T14:09:57;22.40;71.80
16871;DHT22;8552;48.120;-1.456;2022-09-21T14:12:25;22.40;77.10
16871;DHT22;8552;48.120;-1.456;2022-09-21T14:15:31;22.90;76.20
16871;DHT22;8552;48.120;-1.456;2022-09-21T14:23:33;22.20;75.20
16871;DHT22;8552;48.120;-1.456;2022-09-21T14:26:00;22.60;75.00
16871;DHT22;8552;48.120;-1.456;2022-09-21T14:31:23;22.30;73.90
16871;DHT22;8552;48.120;-1.456;2022-09-21T14:33:55;22.70;75.00
16871;DHT22;8552;48.120;-1.456;2022-09-21T14:36:31;23.00;72.20
16871;DHT22;8552;48.120;-1.456;2022-09-21T14:39:03;22.90;72.90
16871;DHT22;8552;48.120;-1.456;2022-09-21T14:41:38;22.60;71.30
16871;DHT22;8552;48.120;-1.456;2022-09-21T14:44:06;22.10;71.50
16871;DHT22;8552;48.120;-1.456;2022-09-21T14:59:17;21.90;71.10
16871;DHT22;8552;48.120;-1.456;2022-09-21T15:06:40;22.10;72.90
16871;DHT22;8552;48.120;-1.456;2022-09-21T15:15:35;22.50;73.80
16871;DHT22;8552;48.120;-1.456;2022-09-21T15:18:16;22.40;70.90
16871;DHT22;8552;48.120;-1.456;2022-09-21T15:20:57;22.50;72.50
16871;DHT22;8552;48.120;-1.456;2022-09-21T15:23:28;22.20;73.70
16871;DHT22;8552;48.120;-1.456;2022-09-21T15:25:58;22.10;72.30
16871;DHT22;8552;48.120;-1.456;2022-09-21T15:28:37;21.70;73.30
16871;DHT22;8552;48.120;-1.456;2022-09-21T15:31:07;21.80;74.80
16871;DHT22;8552;48.120;-1.456;2022-09-21T15:33:40;22.00;73.30
16871;DHT22;8552;48.120;-1.456;2022-09-21T15:36:07;21.90;73.70
16871;DHT22;8552;48.120;-1.456;2022-09-21T15:38:35;22.00;72.70
16871;DHT22;8552;48.120;-1.456;2022-09-21T15:41:08;22.30;73.80
16871;DHT22;8552;48.120;-1.456;2022-09-21T15:43:48;22.10;71.40
16871;DHT22;8552;48.120;-1.456;2022-09-21T15:46:23;22.00;73.70
16871;DHT22;8552;48.120;-1.456;2022-09-21T15:48:49;21.70;74.50
16871;DHT22;8552;48.120;-1.456;2022-09-21T15:51:28;21.60;74.50
16871;DHT22;8552;48.120;-1.456;2022-09-21T15:54:07;22.10;77.10
16871;DHT22;8552;48.120;-1.456;2022-09-21T15:56:34;22.20;75.40
16871;DHT22;8552;48.120;-1.456;2022-09-21T15:59:03;22.30;75.70
16871;DHT22;8552;48.120;-1.456;2022-09-21T16:01:39;21.90;74.80
16871;DHT22;8552;48.120;-1.456;2022-09-21T16:04:10;21.80;76.40
16871;DHT22;8552;48.120;-1.456;2022-09-21T16:06:37;21.90;76.50
16871;DHT22;8552;48.120;-1.456;2022-09-21T16:11:53;21.80;75.50
16871;DHT22;8552;48.120;-1.456;2022-09-21T16:14:20;21.60;75.70
16871;DHT22;8552;48.120;-1.456;2022-09-21T16:22:13;21.20;75.40
16871;DHT22;8552;48.120;-1.456;2022-09-21T16:24:49;20.80;76.80
16871;DHT22;8552;48.120;-1.456;2022-09-21T16:27:17;20.80;77.30
16871;DHT22;8552;48.120;-1.456;2022-09-21T16:29:44;20.60;77.50
16871;DHT22;8552;48.120;-1.456;2022-09-21T16:34:43;20.70;78.70
16871;DHT22;8552;48.120;-1.456;2022-09-21T16:42:16;20.40;77.90
16871;DHT22;8552;48.120;-1.456;2022-09-21T16:44:43;20.40;80.00
16871;DHT22;8552;48.120;-1.456;2022-09-21T16:47:21;20.40;78.90
16871;DHT22;8552;48.120;-1.456;2022-09-21T16:49:58;20.20;78.90
16871;DHT22;8552;48.120;-1.456;2022-09-21T16:52:29;20.20;79.20
16871;DHT22;8552;48.120;-1.456;2022-09-21T16:54:55;20.10;79.40
16871;DHT22;8552;48.120;-1.456;2022-09-21T16:57:23;20.00;78.10
16871;DHT22;8552;48.120;-1.456;2022-09-21T16:59:49;19.90;78.60
16871;DHT22;8552;48.120;-1.456;2022-09-21T17:02:16;19.80;78.50
16871;DHT22;8552;48.120;-1.456;2022-09-21T17:04:42;19.70;79.40
16871;DHT22;8552;48.120;-1.456;2022-09-21T17:07:10;19.70;79.30
16871;DHT22;8552;48.120;-1.456;2022-09-21T17:09:39;19.60;80.50
16871;DHT22;8552;48.120;-1.456;2022-09-21T17:12:10;19.60;81.10
16871;DHT22;8552;48.120;-1.456;2022-09-21T17:14:36;19.60;80.50
16871;DHT22;8552;48.120;-1.456;2022-09-21T17:17:09;19.50;80.90
16871;DHT22;8552;48.120;-1.456;2022-09-21T17:19:36;19.50;81.40
16871;DHT22;8552;48.120;-1.456;2022-09-21T17:22:03;19.40;81.50
16871;DHT22;8552;48.120;-1.456;2022-09-21T17:24:29;19.40;81.90
16871;DHT22;8552;48.120;-1.456;2022-09-21T17:26:55;19.30;83.30
16871;DHT22;8552;48.120;-1.456;2022-09-21T17:29:24;19.30;83.40
16871;DHT22;8552;48.120;-1.456;2022-09-21T17:31:56;19.30;84.80
16871;DHT22;8552;48.120;-1.456;2022-09-21T17:34:26;19.20;85.70
16871;DHT22;8552;48.120;-1.456;2022-09-21T17:36:53;19.10;84.90
16871;DHT22;8552;48.120;-1.456;2022-09-21T17:39:21;19.10;85.90
16871;DHT22;8552;48.120;-1.456;2022-09-21T17:47:28;18.80;87.70
16871;DHT22;8552;48.120;-1.456;2022-09-21T17:50:00;18.70;88.50
16871;DHT22;8552;48.120;-1.456;2022-09-21T17:52:27;18.50;89.20
16871;DHT22;8552;48.120;-1.456;2022-09-21T17:55:12;18.40;90.00
16871;DHT22;8552;48.120;-1.456;2022-09-21T18:00:25;18.20;90.60
16871;DHT22;8552;48.120;-1.456;2022-09-21T18:02:52;18.10;90.90
16871;DHT22;8552;48.120;-1.456;2022-09-21T18:05:29;17.90;91.40
16871;DHT22;8552;48.120;-1.456;2022-09-21T18:07:55;17.80;92.10
16871;DHT22;8552;48.120;-1.456;2022-09-21T18:10:23;17.60;91.80
16871;DHT22;8552;48.120;-1.456;2022-09-21T18:16:12;17.40;92.60
16871;DHT22;8552;48.120;-1.456;2022-09-21T18:18:54;17.20;92.80
16871;DHT22;8552;48.120;-1.456;2022-09-21T18:21:23;17.10;92.10
16871;DHT22;8552;48.120;-1.456;2022-09-21T18:26:36;16.90;92.20
16871;DHT22;8552;48.120;-1.456;2022-09-21T18:29:04;16.80;93.10
16871;DHT22;8552;48.120;-1.456;2022-09-21T18:31:55;16.60;94.20
16871;DHT22;8552;48.120;-1.456;2022-09-21T18:37:07;16.40;94.60
16871;DHT22;8552;48.120;-1.456;2022-09-21T18:45:32;16.00;94.90
16871;DHT22;8552;48.120;-1.456;2022-09-21T18:53:48;15.70;94.60
16871;DHT22;8552;48.120;-1.456;2022-09-21T18:56:14;15.50;96.90
16871;DHT22;8552;48.120;-1.456;2022-09-21T18:58:41;15.40;97.10
16871;DHT22;8552;48.120;-1.456;2022-09-21T19:01:11;15.30;96.20
16871;DHT22;8552;48.120;-1.456;2022-09-21T19:03:38;15.20;96.30
16871;DHT22;8552;48.120;-1.456;2022-09-21T19:15:13;14.90;98.40
16871;DHT22;8552;48.120;-1.456;2022-09-21T19:20:40;14.60;99.30
16871;DHT22;8552;48.120;-1.456;2022-09-21T19:26:31;14.50;99.70
16871;DHT22;8552;48.120;-1.456;2022-09-21T19:31:23;14.20;99.90
16871;DHT22;8552;48.120;-1.456;2022-09-21T19:33:49;14.10;99.90
16871;DHT22;8552;48.120;-1.456;2022-09-21T19:36:14;14.10;99.90
16871;DHT22;8552;48.120;-1.456;2022-09-21T19:38:40;14.00;99.90
16871;DHT22;8552;48.120;-1.456;2022-09-21T19:41:29;13.90;99.90
16871;DHT22;8552;48.120;-1.456;2022-09-21T19:49:27;13.70;99.90
16871;DHT22;8552;48.120;-1.456;2022-09-21T19:52:02;13.60;99.90
16871;DHT22;8552;48.120;-1.456;2022-09-21T19:54:29;13.50;99.90
16871;DHT22;8552;48.120;-1.456;2022-09-21T19:57:18;13.40;99.90
16871;DHT22;8552;48.120;-1.456;2022-09-21T20:00:13;13.30;99.90
16871;DHT22;8552;48.120;-1.456;2022-09-21T20:03:05;13.20;99.90
16871;DHT22;8552;48.120;-1.456;2022-09-21T20:10:37;13.00;99.90
16871;DHT22;8552;48.120;-1.456;2022-09-21T20:16:25;12.80;99.90
16871;DHT22;8552;48.120;-1.456;2022-09-21T20:22:13;12.70;99.90
16871;DHT22;8552;48.120;-1.456;2022-09-21T20:24:55;12.60;99.90
16871;DHT22;8552;48.120;-1.456;2022-09-21T20:27:26;12.50;99.90
16871;DHT22;8552;48.120;-1.456;2022-09-21T20:29:54;12.40;99.90
16871;DHT22;8552;48.120;-1.456;2022-09-21T20:32:20;12.40;99.90
16871;DHT22;8552;48.120;-1.456;2022-09-21T20:34:46;12.30;99.90
16871;DHT22;8552;48.120;-1.456;2022-09-21T20:37:14;12.20;99.90
16871;DHT22;8552;48.120;-1.456;2022-09-21T20:39:41;12.20;99.90
16871;DHT22;8552;48.120;-1.456;2022-09-21T20:42:16;12.20;99.90